Time;durP1;ratioP1;P1;durP2;ratioP2;P2;SDS_P1;SDS_P2;PMS_P1;PMS_P2;Temp;Humidity;BMP_temperature;BMP_pressure;BME280_temperature;BME280_humidity;BME280_pressure;Samples;Min_cycle;Max_cycle;Signal;HPM_P1;HPM_P2
2022/09/11 00:01:07;;;;;;;0.93;0.50;;;;;;;13.19;100.00;102229.31;10302962;28;20051;-78
2022/09/11 00:06:12;;;;;;;0.50;0.40;;;;;;;13.19;100.00;102281.06;10260344;28;20054;-78
2022/09/11 00:11:19;;;;;;;2.05;1.08;;;;;;;13.09;100.00;102284.13;10281115;28;20035;-78
2022/09/11 00:16:31;;;;;;;0.52;0.43;;;;;;;13.04;100.00;102290.81;10293686;28;20265;-79
2022/09/11 00:21:33;;;;;;;2.20;0.93;;;;;;;13.01;100.00;102295.06;10298433;28;20043;-78
2022/09/11 00:26:36;;;;;;;1.55;1.35;;;;;;;12.92;100.00;102294.69;10304624;28;20038;-78
2022/09/11 00:31:38;;;;;;;1.48;0.88;;;;;;;13.06;100.00;102290.06;10330167;28;20039;-78
2022/09/11 00:36:40;;;;;;;1.10;0.47;;;;;;;13.21;100.00;102306.97;10328489;28;20050;-79
2022/09/11 00:41:43;;;;;;;0.80;0.80;;;;;;;13.27;100.00;102317.56;10353300;28;20562;-79
2022/09/11 00:46:52;;;;;;;0.47;0.40;;;;;;;13.37;100.00;102326.53;10310886;28;20097;-78
2022/09/11 00:52:19;;;;;;;2.28;1.35;;;;;;;13.41;100.00;102339.69;10322399;28;20055;-78
2022/09/11 00:57:25;;;;;;;1.52;0.52;;;;;;;13.35;100.00;102343.75;10278731;28;20054;-78
2022/09/11 01:02:32;;;;;;;1.50;0.88;;;;;;;13.33;100.00;102341.06;10295378;28;20042;-79
2022/09/11 01:07:35;;;;;;;1.08;0.73;;;;;;;13.21;100.00;102345.81;10281744;28;20589;-78
2022/09/11 01:13:19;;;;;;;1.23;0.75;;;;;;;13.30;100.00;102354.78;10295184;28;20042;-79
2022/09/11 01:18:31;;;;;;;0.55;0.55;;;;;;;12.96;100.00;102343.16;10299068;28;20149;-79
2022/09/11 01:23:37;;;;;;;1.45;0.60;;;;;;;13.02;100.00;102337.34;10293873;28;20066;-79
2022/09/11 01:28:56;;;;;;;1.55;1.02;;;;;;;12.92;100.00;102346.44;10289627;28;20047;-79
2022/09/11 01:34:05;;;;;;;30.23;2.22;;;;;;;12.97;100.00;102350.09;10276547;28;20146;-78
2022/09/11 01:39:07;;;;;;;0.90;0.63;;;;;;;13.01;100.00;102353.69;10297427;28;20042;-78
2022/09/11 01:44:21;;;;;;;0.88;0.73;;;;;;;12.90;100.00;102352.38;10280605;28;20047;-79
2022/09/11 01:49:41;;;;;;;0.90;0.63;;;;;;;12.89;100.00;102359.25;10301052;28;20038;-78
2022/09/11 01:54:50;;;;;;;1.23;0.50;;;;;;;12.92;100.00;102359.34;10293125;28;20384;-78
2022/09/11 01:59:58;;;;;;;2.70;1.50;;;;;;;12.93;100.00;102360.25;10310960;28;20047;-78
2022/09/11 02:05:09;;;;;;;0.82;0.82;;;;;;;12.99;100.00;102365.66;10292995;28;20047;-79
2022/09/11 02:10:17;;;;;;;1.75;0.77;;;;;;;12.92;100.00;102369.72;10281994;28;20134;-78
2022/09/11 02:15:23;;;;;;;0.60;0.60;;;;;;;12.99;100.00;102357.91;10299396;28;20054;-79
2022/09/11 02:20:25;;;;;;;1.10;0.70;;;;;;;12.92;100.00;102361.94;10302857;28;20043;-79
2022/09/11 02:25:26;;;;;;;1.20;1.00;;;;;;;13.02;100.00;102365.81;10302044;28;20081;-79
2022/09/11 02:30:31;;;;;;;1.65;1.00;;;;;;;12.94;100.00;102365.50;10301826;28;20513;-79
2022/09/11 02:35:44;;;;;;;2.03;1.02;;;;;;;12.96;100.00;102370.72;10293732;28;20058;-80
2022/09/11 02:41:00;;;;;;;2.38;1.15;;;;;;;12.99;100.00;102376.88;10302689;28;20078;-79
2022/09/11 02:46:24;;;;;;;1.65;0.95;;;;;;;12.97;100.00;102378.56;10317829;28;20051;-79
2022/09/11 02:51:31;;;;;;;2.17;1.38;;;;;;;12.87;100.00;102371.25;10276997;28;20451;-79
2022/09/11 02:56:45;;;;;;;0.85;0.82;;;;;;;13.01;100.00;102371.78;10290311;28;20043;-79
2022/09/11 03:01:53;;;;;;;0.10;0.10;;;;;;;12.92;100.00;102385.22;10273206;28;20659;-79
2022/09/11 03:06:59;;;;;;;0.57;0.50;;;;;;;12.81;100.00;102384.78;10306259;28;20093;-79
2022/09/11 03:12:02;;;;;;;1.35;1.08;;;;;;;12.75;100.00;102391.44;10280242;28;20094;-78
2022/09/11 03:17:05;;;;;;;0.80;0.70;;;;;;;12.78;100.00;102391.56;10294152;28;20053;-79
2022/09/11 03:22:09;;;;;;;0.63;0.40;;;;;;;12.74;100.00;102400.88;10305556;28;20053;-78
2022/09/11 03:27:10;;;;;;;2.15;1.13;;;;;;;12.70;100.00;102393.84;10281370;28;20445;-79
2022/09/11 03:32:15;;;;;;;0.60;0.60;;;;;;;12.73;100.00;102403.41;10281301;28;20050;-80
2022/09/11 03:37:17;;;;;;;1.02;0.50;;;;;;;12.79;100.00;102409.75;10295659;28;20055;-78
2022/09/11 03:42:20;;;;;;;0.90;0.45;;;;;;;12.76;100.00;102408.72;10302547;28;20129;-79
2022/09/11 03:47:21;;;;;;;1.33;0.65;;;;;;;12.50;100.00;102408.50;10309649;28;20077;-79
2022/09/11 03:52:23;;;;;;;1.27;1.15;;;;;;;12.49;100.00;102418.00;10317190;28;20047;-79
2022/09/11 03:57:25;;;;;;;0.88;0.73;;;;;;;12.55;100.00;102435.44;10281768;28;20129;-79
2022/09/11 04:02:28;;;;;;;1.23;0.88;;;;;;;12.53;100.00;102432.78;10310896;28;20101;-79
2022/09/11 04:07:29;;;;;;;1.50;0.85;;;;;;;12.48;100.00;102448.91;10289141;28;20051;-79
2022/09/11 04:12:32;;;;;;;3.83;1.33;;;;;;;12.43;100.00;102451.34;10283651;28;20153;-79
2022/09/11 04:17:35;;;;;;;2.58;1.17;;;;;;;12.35;100.00;102448.41;10316182;28;20102;-77
2022/09/11 04:22:38;;;;;;;0.60;0.43;;;;;;;12.29;100.00;102447.25;10295040;28;20035;-78
2022/09/11 04:27:39;;;;;;;2.22;0.85;;;;;;;12.27;100.00;102454.94;10297613;28;20521;-78
2022/09/11 04:32:45;;;;;;;1.02;0.47;;;;;;;12.22;100.00;102446.09;10289757;28;20053;-79
2022/09/11 04:37:48;;;;;;;0.60;0.60;;;;;;;12.32;100.00;102453.44;10307819;28;20051;-79
2022/09/11 04:42:49;;;;;;;1.10;0.77;;;;;;;12.27;100.00;102462.69;10294057;28;20138;-79
2022/09/11 04:47:53;;;;;;;2.03;0.88;;;;;;;12.12;100.00;102459.41;10322500;28;20417;-78
2022/09/11 04:52:54;;;;;;;0.30;0.30;;;;;;;12.31;100.00;102462.03;10280915;28;20050;-78
2022/09/11 04:57:57;;;;;;;0.98;0.65;;;;;;;12.36;100.00;102470.84;10272595;28;20093;-79
2022/09/11 05:03:00;;;;;;;0.80;0.45;;;;;;;12.23;100.00;102478.88;10278563;28;20138;-79
2022/09/11 05:08:02;;;;;;;1.75;1.13;;;;;;;12.22;100.00;102487.44;10293598;28;20397;-79
2022/09/11 05:13:05;;;;;;;0.75;0.55;;;;;;;12.24;100.00;102493.56;10295609;28;20046;-78
2022/09/11 05:18:06;;;;;;;0.43;0.43;;;;;;;12.31;100.00;102516.28;10288107;28;20070;-78
2022/09/11 05:23:11;;;;;;;0.40;0.40;;;;;;;12.41;100.00;102521.84;10272168;28;20181;-79
2022/09/11 05:28:12;;;;;;;0.73;0.57;;;;;;;12.31;100.00;102529.22;10293770;28;20040;-79
2022/09/11 05:33:14;;;;;;;0.47;0.43;;;;;;;12.25;100.00;102538.38;10292469;28;20047;-79
2022/09/11 05:38:17;;;;;;;0.35;0.35;;;;;;;12.24;100.00;102553.00;10301447;28;20410;-78
2022/09/11 05:43:19;;;;;;;0.82;0.82;;;;;;;12.24;100.00;102555.59;10302118;28;20060;-78
2022/09/11 05:48:23;;;;;;;3.15;1.40;;;;;;;12.32;100.00;102551.63;10259612;28;20469;-78
2022/09/11 05:53:32;;;;;;;1.75;1.08;;;;;;;12.29;100.00;102559.25;10281691;28;20133;-78
2022/09/11 05:58:36;;;;;;;0.57;0.50;;;;;;;12.43;100.00;102559.00;10267770;28;20113;-78
2022/09/11 06:03:40;;;;;;;0.43;0.38;;;;;;;12.41;100.00;102568.38;10287881;28;20039;-78
2022/09/11 06:08:44;;;;;;;1.88;0.93;;;;;;;12.50;100.00;102576.53;10288787;28;20039;-78
2022/09/11 06:13:48;;;;;;;0.73;0.55;;;;;;;12.60;100.00;102589.09;10284633;28;20077;-78
2022/09/11 06:18:53;;;;;;;0.93;0.68;;;;;;;12.73;100.00;102594.78;10285526;28;20473;-79
2022/09/11 06:23:55;;;;;;;0.93;0.50;;;;;;;12.79;100.00;102605.41;10301474;28;20050;-78
2022/09/11 06:28:58;;;;;;;1.30;0.82;;;;;;;12.89;100.00;102602.41;10289274;28;20046;-79
2022/09/11 06:34:00;;;;;;;1.10;0.70;;;;;;;12.97;100.00;102611.38;10301044;28;20047;-79
2022/09/11 06:39:04;;;;;;;3.80;2.17;;;;;;;12.90;100.00;102601.59;10298210;28;20053;-77
2022/09/11 06:44:08;;;;;;;0.60;0.60;;;;;;;13.17;100.00;102614.84;10293713;28;20397;-77
2022/09/11 06:49:12;;;;;;;1.42;0.90;;;;;;;13.35;100.00;102623.31;10280357;28;20053;-78
2022/09/11 06:54:32;;;;;;;1.52;1.25;;;;;;;13.18;100.00;102611.41;10299333;28;20042;-78
2022/09/11 07:00:03;;;;;;;0.52;0.47;;;;;;;13.29;100.00;102609.28;10298214;28;20069;-78
2022/09/11 07:05:10;;;;;;;1.38;1.23;;;;;;;13.38;100.00;102607.88;10297429;28;20062;-78
2022/09/11 07:10:13;;;;;;;1.42;1.00;;;;;;;13.58;100.00;102612.25;10310659;28;20047;-78
2022/09/11 07:15:15;;;;;;;1.42;1.05;;;;;;;13.64;100.00;102609.91;10288986;28;20051;-79
2022/09/11 07:20:17;;;;;;;3.15;0.82;;;;;;;13.94;100.00;102611.94;10274487;28;20043;-79
2022/09/11 07:25:19;;;;;;;7.63;1.00;;;;;;;14.02;100.00;102613.94;10294391;28;20146;-80
2022/09/11 07:30:21;;;;;;;2.53;1.55;;;;;;;14.31;100.00;102621.97;10283473;28;20050;-79
2022/09/11 07:35:26;;;;;;;1.63;1.02;;;;;;;14.46;100.00;102611.28;10270030;28;20051;-79
2022/09/11 07:40:30;;;;;;;2.47;0.57;;;;;;;14.72;100.00;102605.38;10281108;28;20045;-80
2022/09/11 07:45:34;;;;;;;2.03;1.05;;;;;;;14.82;100.00;102596.22;10294127;28;20051;-79
2022/09/11 07:50:37;;;;;;;2.38;0.85;;;;;;;14.67;100.00;102567.13;10311152;28;20129;-79
2022/09/11 07:55:39;;;;;;;2.50;1.65;;;;;;;15.94;100.00;102568.69;10275565;28;20059;-80
2022/09/11 08:00:41;;;;;;;3.67;1.67;;;;;;;16.06;100.00;102491.06;10278175;28;20038;-80
2022/09/11 08:05:56;;;;;;;3.35;1.58;;;;;;;16.90;100.00;102425.63;10279184;28;20043;-80
2022/09/11 08:11:09;;;;;;;3.83;1.50;;;;;;;16.34;100.00;102380.03;10295102;28;20039;-80
2022/09/11 08:16:18;;;;;;;3.65;1.38;;;;;;;15.66;100.00;102375.56;10293941;28;20047;-80
2022/09/11 08:21:21;;;;;;;6.55;2.28;;;;;;;15.80;100.00;102389.81;10301889;28;20039;-80
2022/09/11 08:26:29;;;;;;;3.00;1.58;;;;;;;15.91;100.00;102395.34;10282736;28;20205;-79
2022/09/11 08:31:58;;;;;;;3.47;1.70;;;;;;;16.00;100.00;102386.91;10279669;28;20049;-83
2022/09/11 08:37:05;;;;;;;3.67;2.58;;;;;;;15.97;100.00;102386.84;10283912;28;20050;-81
2022/09/11 08:42:13;;;;;;;2.75;1.35;;;;;;;15.78;100.00;102391.50;10276801;28;20141;-81
2022/09/11 08:47:24;;;;;;;3.53;1.25;;;;;;;16.10;100.00;102383.75;10260161;28;20138;-81
2022/09/11 08:52:28;;;;;;;3.80;1.42;;;;;;;16.51;100.00;102370.03;10274837;28;20070;-81
2022/09/11 08:57:49;;;;;;;5.35;1.65;;;;;;;16.42;100.00;102364.59;10272458;28;20057;-80
2022/09/11 09:03:11;;;;;;;2.20;1.30;;;;;;;16.42;100.00;102360.25;10293490;28;20050;-79
2022/09/11 09:08:36;;;;;;;1.52;0.88;;;;;;;16.54;100.00;102358.81;10285613;28;20050;-80
2022/09/11 09:14:10;;;;;;;2.50;1.45;;;;;;;16.42;100.00;102339.47;10269732;28;20054;-80
2022/09/11 09:19:28;;;;;;;4.53;2.15;;;;;;;16.61;100.00;102319.09;10285529;28;20047;-81
2022/09/11 09:24:39;;;;;;;3.38;1.60;;;;;;;16.58;100.00;102303.41;10263850;28;20050;-80
2022/09/11 09:29:46;;;;;;;1.88;1.63;;;;;;;17.02;100.00;102186.41;10280525;28;20049;-80
2022/09/11 09:34:52;;;;;;;3.33;1.88;;;;;;;17.12;100.00;102161.44;10283197;28;20109;-82
2022/09/11 09:39:54;;;;;;;3.33;2.38;;;;;;;17.52;100.00;102145.66;10288558;28;20051;-80
2022/09/11 09:45:36;;;;;;;3.50;1.58;;;;;;;17.99;100.00;102114.25;10294049;28;20070;-80
2022/09/11 09:50:40;;;;;;;2.35;1.42;;;;;;;17.74;100.00;102110.38;10295078;28;20496;-80
2022/09/11 09:55:43;;;;;;;2.13;1.77;;;;;;;17.64;100.00;102109.34;10267945;28;20050;-79
2022/09/11 10:00:44;;;;;;;1.85;0.95;;;;;;;17.84;100.00;102096.63;10295877;28;20043;-79
2022/09/11 10:05:48;;;;;;;1.08;0.98;;;;;;;17.53;100.00;102110.94;10294720;28;20047;-78
2022/09/11 10:11:02;;;;;;;3.13;2.33;;;;;;;17.43;100.00;102126.41;10291818;28;20151;-79
2022/09/11 10:16:18;;;;;;;0.90;0.90;;;;;;;17.35;100.00;102117.56;10309220;28;20046;-79
2022/09/11 10:21:32;;;;;;;3.42;1.95;;;;;;;17.47;100.00;102126.44;10309823;28;20038;-79
2022/09/11 10:26:34;;;;;;;4.13;1.55;;;;;;;17.54;100.00;102117.88;10291957;28;20035;-79
2022/09/11 10:31:48;;;;;;;0.88;0.60;;;;;;;17.57;100.00;102097.94;10288818;28;20030;-78
2022/09/11 10:37:09;;;;;;;4.55;1.45;;;;;;;17.82;100.00;102094.88;10293069;28;20129;-78
2022/09/11 10:42:15;;;;;;;4.43;1.00;;;;;;;17.22;100.00;102076.53;10290338;28;20034;-77
2022/09/11 10:47:23;;;;;;;1.27;0.90;;;;;;;17.31;100.00;102071.50;10297261;28;20770;-78
2022/09/11 10:52:28;;;;;;;1.10;0.88;;;;;;;19.89;100.00;102034.34;10275398;28;20047;-78
2022/09/11 10:57:42;;;;;;;2.20;1.08;;;;;;;20.01;100.00;101999.53;10279393;28;20039;-79
2022/09/11 11:02:56;;;;;;;0.63;0.63;;;;;;;20.03;100.00;101997.78;10283176;28;20133;-78
2022/09/11 11:08:23;;;;;;;0.88;0.70;;;;;;;20.38;100.00;101988.28;10281820;28;20454;-79
2022/09/11 11:14:03;;;;;;;1.15;0.88;;;;;;;20.79;100.00;101963.97;10302138;28;20062;-80
2022/09/11 11:19:21;;;;;;;0.77;0.50;;;;;;;21.59;100.00;101959.50;10291329;28;20054;-80
2022/09/11 11:24:45;;;;;;;0.32;0.32;;;;;;;20.69;100.00;101963.06;10282091;28;20057;-80
2022/09/11 11:30:09;;;;;;;0.35;0.30;;;;;;;22.27;100.00;101967.06;10290894;28;20070;-79
2022/09/11 11:35:28;;;;;;;0.30;0.30;;;;;;;22.02;100.00;101951.44;10292512;28;20039;-80
2022/09/11 11:40:35;;;;;;;0.30;0.30;;;;;;;21.18;100.00;101954.34;10286299;28;20066;-80
2022/09/11 11:45:46;;;;;;;1.13;0.70;;;;;;;21.47;100.00;101957.75;10283645;28;20117;-79
2022/09/11 11:50:54;;;;;;;1.70;1.08;;;;;;;21.48;100.00;101954.25;10301323;28;20139;-79
2022/09/11 11:56:07;;;;;;;2.15;1.55;;;;;;;22.35;100.00;101960.00;10288603;28;20141;-79
2022/09/11 12:01:30;;;;;;;0.35;0.35;;;;;;;21.32;100.00;101958.66;10307353;28;20045;-79
2022/09/11 12:06:32;;;;;;;1.83;0.85;;;;;;;20.98;100.00;101958.69;10289222;28;20379;-79
2022/09/11 12:11:33;;;;;;;2.00;1.70;;;;;;;21.46;100.00;101956.88;10302025;28;20045;-79
2022/09/11 12:16:37;;;;;;;1.70;0.85;;;;;;;22.02;100.00;101956.69;10286497;28;20042;-80
2022/09/11 12:22:00;;;;;;;0.65;0.57;;;;;;;21.06;100.00;101956.94;10288515;28;20042;-78
2022/09/11 12:27:33;;;;;;;0.70;0.65;;;;;;;21.24;100.00;101956.94;10301169;28;20070;-79
2022/09/11 12:32:48;;;;;;;3.15;0.95;;;;;;;21.52;100.00;101954.25;10283006;28;20073;-79
2022/09/11 12:38:28;;;;;;;0.50;0.50;;;;;;;20.14;100.00;101958.59;10300368;28;20070;-79
2022/09/11 12:43:33;;;;;;;1.67;0.82;;;;;;;20.94;100.00;101951.72;10271485;28;20050;-77
2022/09/11 12:48:42;;;;;;;0.65;0.65;;;;;;;21.29;100.00;101942.94;10271279;28;20130;-79
2022/09/11 12:53:49;;;;;;;;;;;;;;;21.22;100.00;101937.72;10294776;28;20035;-78
2022/09/11 12:58:55;;;;;;;1.65;0.55;;;;;;;21.18;100.00;101941.22;10278309;28;19921;-79
2022/09/11 13:04:07;;;;;;;1.70;0.55;;;;;;;21.71;100.00;101935.84;10276843;28;20049;-78
2022/09/11 13:09:27;;;;;;;1.25;0.75;;;;;;;21.31;100.00;101914.97;10281705;28;20049;-78
2022/09/11 13:14:55;;;;;;;;;;;;;;;21.46;100.00;101909.69;10288122;28;20043;-78
2022/09/11 13:20:19;;;;;;;1.05;0.70;;;;;;;21.86;100.00;101899.03;10280265;28;19933;-78
2022/09/11 13:25:23;;;;;;;0.95;0.70;;;;;;;21.94;100.00;101896.41;10281402;28;20106;-78
2022/09/11 13:30:25;;;;;;;1.50;0.82;;;;;;;21.83;100.00;101892.94;10276212;28;20467;-78
2022/09/11 13:35:28;;;;;;;0.90;0.45;;;;;;;21.77;100.00;101888.63;10276658;28;20458;-78
2022/09/11 13:40:40;;;;;;;0.98;0.88;;;;;;;20.74;100.00;101887.13;10281706;28;20062;-77
2022/09/11 13:45:44;;;;;;;0.98;0.57;;;;;;;21.24;100.00;101885.28;10289367;28;20046;-78
2022/09/11 13:50:50;;;;;;;0.90;0.63;;;;;;;20.36;100.00;101893.22;10280654;28;20066;-78
2022/09/11 13:55:52;;;;;;;0.93;0.80;;;;;;;20.31;100.00;101894.94;10274053;28;20065;-78
2022/09/11 14:00:54;;;;;;;0.85;0.50;;;;;;;20.25;100.00;101880.13;10303178;28;20133;-79
2022/09/11 14:06:04;;;;;;;1.92;0.63;;;;;;;20.80;100.00;101876.66;10302199;28;20055;-77
2022/09/11 14:11:14;;;;;;;0.40;0.30;;;;;;;20.57;100.00;101864.44;10292438;28;20649;-77
2022/09/11 14:16:15;;;;;;;0.80;0.65;;;;;;;21.71;100.00;101855.44;10299085;28;20141;-78
2022/09/11 14:21:34;;;;;;;2.15;0.95;;;;;;;21.24;100.00;101856.47;10302542;28;20050;-78
2022/09/11 14:26:35;;;;;;;0.33;0.33;;;;;;;21.29;100.00;101849.47;10296328;28;20047;-78
2022/09/11 14:31:42;;;;;;;1.30;0.70;;;;;;;21.19;100.00;101838.13;10292962;28;20046;-77
2022/09/11 14:36:49;;;;;;;1.38;1.05;;;;;;;20.92;100.00;101839.97;10299869;28;20078;-78
2022/09/11 14:41:53;;;;;;;3.28;0.90;;;;;;;21.01;100.00;101840.81;10298011;28;20122;-78
2022/09/11 14:46:58;;;;;;;0.73;0.73;;;;;;;20.97;100.00;101842.59;10300858;28;20081;-78
2022/09/11 14:52:00;;;;;;;0.60;0.55;;;;;;;20.87;100.00;101840.84;10287811;28;20047;-77
2022/09/11 14:57:02;;;;;;;0.38;0.30;;;;;;;20.58;100.00;101845.25;10280421;28;20461;-77
2022/09/11 15:02:04;;;;;;;0.73;0.70;;;;;;;20.57;100.00;101846.09;10303829;28;20035;-77
2022/09/11 15:07:10;;;;;;;2.83;1.00;;;;;;;20.11;100.00;101854.78;10297728;28;20450;-78
2022/09/11 15:12:13;;;;;;;0.88;0.60;;;;;;;20.50;100.00;101853.94;10294394;28;20513;-78
2022/09/11 15:17:19;;;;;;;1.05;0.88;;;;;;;20.22;100.00;101846.97;10293430;28;20051;-78
2022/09/11 15:22:22;;;;;;;1.00;0.77;;;;;;;20.32;100.00;101839.13;10333180;28;20049;-78
2022/09/11 15:27:34;;;;;;;3.70;1.42;;;;;;;20.39;100.00;101827.78;10329683;28;20047;-77
2022/09/11 15:32:37;;;;;;;1.20;0.65;;;;;;;20.45;100.00;101828.66;10294533;28;20045;-78
2022/09/11 15:37:39;;;;;;;1.10;0.75;;;;;;;20.50;100.00;101826.03;10338120;28;20145;-77
2022/09/11 15:42:42;;;;;;;1.27;0.80;;;;;;;20.20;100.00;101819.94;10336768;28;20133;-77
2022/09/11 15:47:43;;;;;;;1.00;0.60;;;;;;;20.19;100.00;101826.03;10337118;28;20121;-77
2022/09/11 15:52:45;;;;;;;0.55;0.45;;;;;;;20.13;100.00;101811.22;10332813;28;20073;-77
2022/09/11 15:57:48;;;;;;;0.90;0.50;;;;;;;20.15;100.00;101820.81;10323366;28;20077;-77
2022/09/11 16:02:51;;;;;;;0.43;0.35;;;;;;;20.36;100.00;101814.72;10337422;28;20592;-78
2022/09/11 16:07:53;;;;;;;1.35;0.90;;;;;;;20.03;100.00;101805.97;10330056;28;20126;-76
2022/09/11 16:12:55;;;;;;;0.65;0.40;;;;;;;20.04;100.00;101815.56;10322896;28;20471;-76
2022/09/11 16:17:59;;;;;;;1.02;0.35;;;;;;;20.27;100.00;101816.47;10308395;28;20058;-77
2022/09/11 16:23:03;;;;;;;1.65;0.75;;;;;;;20.25;100.00;101810.34;10336279;28;20406;-77
2022/09/11 16:28:07;;;;;;;1.77;0.93;;;;;;;20.16;100.00;101812.94;10314146;28;20130;-78
2022/09/11 16:33:10;;;;;;;0.88;0.77;;;;;;;20.03;100.00;101819.06;10294370;28;20498;-76
2022/09/11 16:38:11;;;;;;;1.13;0.52;;;;;;;19.86;100.00;101821.66;10302693;28;20106;-76
2022/09/11 16:43:13;;;;;;;1.33;1.15;;;;;;;19.92;100.00;101822.50;10310024;28;20039;-77
2022/09/11 16:48:24;;;;;;;0.80;0.80;;;;;;;19.84;100.00;101819.03;10308252;28;20039;-77
2022/09/11 16:53:28;;;;;;;0.57;0.47;;;;;;;19.63;100.00;101820.69;10325247;28;20117;-77
2022/09/11 16:58:33;;;;;;;1.83;1.13;;;;;;;19.52;100.00;101822.41;10297657;28;20046;-77
2022/09/11 17:03:36;;;;;;;0.50;0.50;;;;;;;19.43;100.00;101819.75;10308575;28;20094;-76
2022/09/11 17:08:43;;;;;;;1.85;0.63;;;;;;;19.29;100.00;101819.69;10318424;28;20085;-77
2022/09/11 17:13:45;;;;;;;1.60;0.68;;;;;;;19.23;100.00;101823.16;10316937;28;20594;-78
2022/09/11 17:18:50;;;;;;;1.05;0.73;;;;;;;19.00;100.00;101828.25;10332773;28;20078;-78
2022/09/11 17:23:55;;;;;;;0.68;0.50;;;;;;;18.83;100.00;101830.72;10334381;28;20048;-78
2022/09/11 17:29:06;;;;;;;1.35;0.73;;;;;;;18.67;100.00;101828.00;10310753;28;20043;-78
2022/09/11 17:34:08;;;;;;;2.20;1.30;;;;;;;18.56;100.00;101827.09;10325223;28;20485;-78
2022/09/11 17:39:10;;;;;;;0.82;0.50;;;;;;;18.48;100.00;101831.38;10317924;28;20130;-78
2022/09/11 17:44:13;;;;;;;0.63;0.47;;;;;;;18.30;100.00;101830.34;10294912;28;20038;-78
2022/09/11 17:49:14;;;;;;;0.20;0.10;;;;;;;18.06;100.00;101831.84;10319492;28;20446;-78
2022/09/11 17:54:16;;;;;;;0.45;0.40;;;;;;;17.94;100.00;101836.94;10305633;28;20478;-78
2022/09/11 17:59:17;;;;;;;0.57;0.43;;;;;;;17.87;100.00;101835.13;10290582;28;20484;-78
2022/09/11 18:04:21;;;;;;;0.63;0.43;;;;;;;17.66;100.00;101852.28;10285494;28;20043;-78
2022/09/11 18:09:27;;;;;;;0.40;0.22;;;;;;;17.47;100.00;101858.09;10286353;28;20043;-78
2022/09/11 18:14:30;;;;;;;2.00;0.43;;;;;;;17.12;100.00;101870.69;10287947;28;20055;-78
2022/09/11 18:19:39;;;;;;;0.20;0.20;;;;;;;16.77;100.00;101891.81;10292051;28;20126;-78
2022/09/11 18:24:44;;;;;;;;;;;;;;;16.65;100.00;101920.22;10299116;28;20047;-77
2022/09/11 18:29:47;;;;;;;0.32;0.30;;;;;;;16.48;100.00;101936.44;10297671;28;19922;-77
2022/09/11 18:34:57;;;;;;;0.10;0.10;;;;;;;16.47;100.00;101947.69;10296234;28;20046;-78
2022/09/11 18:40:10;;;;;;;0.52;0.40;;;;;;;16.29;100.00;101952.53;10289024;28;20058;-77
2022/09/11 18:45:16;;;;;;;0.95;0.63;;;;;;;16.30;100.00;101954.28;10283398;28;20049;-77
2022/09/11 18:50:19;;;;;;;0.30;0.22;;;;;;;16.09;100.00;101942.63;10315327;28;20451;-78
2022/09/11 18:55:21;;;;;;;0.65;0.60;;;;;;;15.92;100.00;101957.91;10315321;28;20038;-77
2022/09/11 19:00:23;;;;;;;0.40;0.30;;;;;;;15.71;100.00;101976.47;10295766;28;20066;-77
2022/09/11 19:05:25;;;;;;;1.75;0.68;;;;;;;15.62;100.00;101979.75;10299914;28;20038;-77
2022/09/11 19:10:27;;;;;;;1.38;0.65;;;;;;;15.74;100.00;101983.44;10289173;28;20034;-77
2022/09/11 19:15:30;;;;;;;2.20;1.20;;;;;;;15.76;100.00;101956.66;10286014;28;20059;-77
2022/09/11 19:20:36;;;;;;;0.30;0.25;;;;;;;15.72;100.00;101957.44;10300862;28;20065;-77
2022/09/11 19:25:37;;;;;;;0.38;0.30;;;;;;;15.35;100.00;101954.88;10302313;28;20438;-77
2022/09/11 19:30:42;;;;;;;1.40;0.52;;;;;;;15.16;100.00;101973.47;10302248;28;20130;-77
2022/09/11 19:35:56;;;;;;;2.03;0.93;;;;;;;15.36;100.00;101976.56;10295821;28;20046;-77
2022/09/11 19:41:08;;;;;;;0.70;0.70;;;;;;;15.36;100.00;101960.97;10301957;28;20507;-78
2022/09/11 19:46:14;;;;;;;1.48;0.70;;;;;;;15.21;100.00;101970.16;10296751;28;20390;-77
2022/09/11 19:51:22;;;;;;;1.55;0.70;;;;;;;14.89;100.00;102006.56;10303735;28;20502;-77
2022/09/11 19:56:25;;;;;;;0.88;0.70;;;;;;;14.83;100.00;102014.19;10330401;28;20486;-77
2022/09/11 20:01:33;;;;;;;0.80;0.60;;;;;;;14.66;100.00;102012.88;10335873;28;20462;-77
2022/09/11 20:06:35;;;;;;;0.65;0.65;;;;;;;14.35;100.00;102040.50;10308333;28;20546;-77
2022/09/11 20:11:45;;;;;;;0.35;0.20;;;;;;;14.46;100.00;102046.88;10320095;28;20506;-78
2022/09/11 20:16:47;;;;;;;0.20;0.10;;;;;;;14.21;100.00;102051.34;10317513;28;20054;-78
2022/09/11 20:21:55;;;;;;;3.03;0.85;;;;;;;14.24;100.00;102061.81;10335606;28;20034;-77
2022/09/11 20:26:57;;;;;;;0.43;0.22;;;;;;;14.10;100.00;102068.31;10295103;28;20072;-77
2022/09/11 20:32:03;;;;;;;0.38;0.30;;;;;;;14.12;100.00;102064.03;10290661;28;20045;-77
2022/09/11 20:37:04;;;;;;;1.45;1.08;;;;;;;13.76;100.00;102077.63;10294028;28;20050;-77
2022/09/11 20:42:12;;;;;;;0.50;0.47;;;;;;;13.72;100.00;102093.91;10293446;28;20653;-77
2022/09/11 20:47:14;;;;;;;1.52;1.23;;;;;;;13.70;100.00;102103.34;10294327;28;20129;-77
2022/09/11 20:52:17;;;;;;;0.38;0.38;;;;;;;13.55;100.00;102233.19;10301953;28;20038;-77
2022/09/11 20:57:19;;;;;;;0.57;0.32;;;;;;;13.60;100.00;102226.44;10315760;28;20046;-77
2022/09/11 21:02:20;;;;;;;1.55;0.63;;;;;;;13.51;100.00;102227.03;10328217;28;20097;-77
2022/09/11 21:07:23;;;;;;;0.45;0.32;;;;;;;13.49;100.00;102218.31;10303011;28;20137;-77
2022/09/11 21:12:30;;;;;;;0.50;0.30;;;;;;;13.44;100.00;102219.88;10300330;28;20510;-78
2022/09/11 21:17:32;;;;;;;2.05;0.95;;;;;;;13.46;100.00;102207.84;10310124;28;20046;-78
2022/09/11 21:22:44;;;;;;;0.45;0.20;;;;;;;13.37;100.00;102212.66;10315875;28;20503;-77
2022/09/11 21:27:47;;;;;;;0.40;0.30;;;;;;;13.27;100.00;102208.84;10315040;28;20054;-77
2022/09/11 21:32:48;;;;;;;0.85;0.52;;;;;;;13.19;100.00;102216.38;10311271;28;20075;-77
2022/09/11 21:37:51;;;;;;;1.05;0.55;;;;;;;13.14;100.00;102216.19;10321772;28;20113;-77
2022/09/11 21:43:10;;;;;;;1.17;0.38;;;;;;;13.04;100.00;102223.56;10298831;28;20047;-77
2022/09/11 21:48:13;;;;;;;0.60;0.60;;;;;;;12.87;100.00;102225.53;10295623;28;20483;-77
2022/09/11 21:53:29;;;;;;;1.20;0.77;;;;;;;12.90;100.00;102231.69;10302290;28;20051;-77
2022/09/11 21:58:35;;;;;;;0.40;0.40;;;;;;;12.92;100.00;102235.19;10317916;28;20050;-78
2022/09/11 22:03:36;;;;;;;1.45;0.65;;;;;;;12.65;100.00;102246.25;10326841;28;20039;-77
2022/09/11 22:08:40;;;;;;;0.22;0.22;;;;;;;12.68;100.00;102235.16;10310177;28;20402;-77
2022/09/11 22:13:42;;;;;;;0.95;0.75;;;;;;;12.60;100.00;102242.63;10317079;28;20556;-77
2022/09/11 22:18:47;;;;;;;1.88;0.55;;;;;;;12.61;100.00;102249.56;10315761;28;20051;-77
2022/09/11 22:23:49;;;;;;;0.30;0.30;;;;;;;12.53;100.00;102250.97;10303858;28;20406;-77
2022/09/11 22:28:51;;;;;;;0.45;0.45;;;;;;;12.48;100.00;102252.47;10325449;28;20051;-77
2022/09/11 22:33:53;;;;;;;0.47;0.47;;;;;;;12.37;100.00;102260.69;10313344;28;20043;-77
2022/09/11 22:38:57;;;;;;;0.68;0.57;;;;;;;12.33;100.00;102243.28;10311766;28;20050;-78
2022/09/11 22:43:59;;;;;;;0.52;0.43;;;;;;;12.33;100.00;102234.66;10340612;28;20042;-77
2022/09/11 22:49:02;;;;;;;1.05;0.35;;;;;;;12.12;100.00;102222.66;10337165;28;20061;-77
2022/09/11 22:54:05;;;;;;;0.80;0.65;;;;;;;12.11;100.00;102236.38;10349136;28;20038;-77
2022/09/11 22:59:07;;;;;;;0.82;0.60;;;;;;;12.08;100.00;102241.41;10346575;28;20058;-77
2022/09/11 23:04:08;;;;;;;0.88;0.63;;;;;;;12.13;100.00;102244.19;10330076;28;20046;-77
2022/09/11 23:09:12;;;;;;;0.73;0.40;;;;;;;12.14;100.00;102243.38;10313156;28;20074;-78
2022/09/11 23:14:14;;;;;;;0.57;0.45;;;;;;;12.09;100.00;102231.97;10308068;28;20138;-77